Time;durP1;ratioP1;P1;durP2;ratioP2;P2;SDS_P1;SDS_P2;PMS_P1;PMS_P2;Temp;Humidity;BMP_temperature;BMP_pressure;BME280_temperature;BME280_humidity;BME280_pressure;Samples;Min_cycle;Max_cycle;Signal;HPM_P1;HPM_P2
2023/07/23 00:00:59;;;;;;;5.28;3.33;;;18.70;85.90;;;19.51;61.67;99993.72;4975389;28;20509;-85
2023/07/23 00:03:26;;;;;;;5.85;3.53;;;18.70;86.10;;;19.51;61.65;99993.72;4974148;28;20149;-86
2023/07/23 00:05:54;;;;;;;7.72;3.75;;;18.70;86.00;;;19.48;61.97;99994.31;4974160;28;20825;-86
2023/07/23 00:08:21;;;;;;;7.15;3.72;;;18.60;86.10;;;19.46;61.75;99988.34;4974253;28;20491;-85
2023/07/23 00:10:48;;;;;;;9.73;3.88;;;18.60;85.90;;;19.46;61.34;99987.56;4973823;28;20455;-86
2023/07/23 00:13:17;;;;;;;8.30;3.55;;;18.60;85.40;;;19.39;61.44;99977.06;4975141;28;20047;-86
2023/07/23 00:15:44;;;;;;;10.13;3.45;;;18.60;85.40;;;19.36;60.85;99966.81;4954492;28;20043;-86
2023/07/23 00:18:12;;;;;;;9.80;3.85;;;18.50;84.90;;;19.34;60.58;99973.59;4955659;28;20078;-86
2023/07/23 00:20:39;;;;;;;7.68;3.97;;;18.50;84.70;;;19.29;60.82;99950.91;4955545;29;20039;-86
2023/07/23 00:23:06;;;;;;;9.55;3.95;;;18.50;84.60;;;19.30;60.39;99957.13;4954288;28;20058;-86
2023/07/23 00:25:34;;;;;;;6.45;3.30;;;18.50;84.60;;;19.32;60.00;99954.94;4938465;29;20452;-86
2023/07/23 00:28:01;;;;;;;6.68;3.83;;;18.50;83.90;;;19.29;60.05;99940.09;4954576;29;20162;-86
2023/07/23 00:30:30;;;;;;;5.85;3.67;;;18.50;84.20;;;19.31;60.66;99939.78;4954109;29;20051;-86
2023/07/23 00:32:58;;;;;;;6.90;3.70;;;18.50;84.70;;;19.33;60.66;99939.53;4954104;29;20421;-85
2023/07/23 00:35:25;;;;;;;11.95;4.10;;;18.50;84.30;;;19.33;60.29;99936.84;4954131;28;20046;-86
2023/07/23 00:37:53;;;;;;;10.07;4.18;;;18.50;84.10;;;19.35;60.34;99934.63;4954243;28;20063;-85
2023/07/23 00:40:21;;;;;;;8.52;4.28;;;18.50;84.30;;;19.34;60.62;99920.31;4984397;28;20075;-85
2023/07/23 00:42:48;;;;;;;8.02;4.10;;;18.50;84.50;;;19.35;60.58;99916.50;4953113;28;20134;-86
2023/07/23 00:45:15;;;;;;;8.13;4.03;;;18.50;84.50;;;19.35;60.70;99913.00;4954007;29;20166;-86
2023/07/23 00:47:44;;;;;;;8.02;3.88;;;18.50;84.60;;;19.34;60.72;99914.91;4953717;28;20439;-86
2023/07/23 00:50:15;;;;;;;8.00;3.85;;;18.50;84.90;;;19.31;60.65;99901.94;4954175;28;20042;-86
2023/07/23 00:52:43;;;;;;;8.15;3.55;;;18.50;84.90;;;19.33;60.70;99902.47;4953632;29;20086;-85
2023/07/23 00:55:11;;;;;;;7.75;3.88;;;18.50;84.90;;;19.33;60.71;99899.78;4953819;29;20489;-86
2023/07/23 00:57:38;;;;;;;6.90;3.75;;;18.50;84.90;;;19.33;60.39;99897.06;4969869;28;20039;-86
2023/07/23 01:00:09;;;;;;;8.00;3.85;;;18.50;84.70;;;19.33;60.53;99893.56;4954725;28;20501;-86
2023/07/23 01:02:36;;;;;;;9.80;3.83;;;18.50;84.70;;;19.32;60.74;99887.31;4953791;29;20297;-86
2023/07/23 01:05:06;;;;;;;7.53;3.95;;;18.50;84.80;;;19.30;61.19;99884.91;4953545;28;20113;-86
2023/07/23 01:07:35;;;;;;;8.88;3.60;;;18.50;85.50;;;19.28;61.41;99879.00;4953302;29;20090;-85
2023/07/23 01:10:03;;;;;;;6.90;4.03;;;18.50;85.60;;;19.26;61.53;99874.94;4952916;28;20480;-85
2023/07/23 01:12:32;;;;;;;8.63;3.65;;;18.40;85.90;;;19.25;61.63;99870.63;4954545;28;20045;-86
2023/07/23 01:14:59;;;;;;;7.63;3.60;;;18.40;86.30;;;19.23;61.84;99870.13;4953313;28;20046;-85
2023/07/23 01:17:27;;;;;;;6.85;3.55;;;18.40;86.70;;;19.24;62.01;99858.22;4953305;29;20137;-86
2023/07/23 01:20:04;;;;;;;8.48;3.75;;;18.30;86.70;;;19.21;62.22;99856.06;4954309;28;20039;-86
2023/07/23 01:22:34;;;;;;;7.30;3.55;;;18.30;87.10;;;19.19;62.45;99855.56;4953378;29;20047;-86
2023/07/23 01:25:01;;;;;;;7.55;3.63;;;18.30;87.10;;;19.19;62.64;99853.66;4969429;28;20051;-86
2023/07/23 01:27:29;;;;;;;5.68;3.53;;;18.30;87.50;;;19.18;63.12;99846.63;4953112;29;20057;-86
2023/07/23 01:29:57;;;;;;;6.22;3.50;;;18.30;87.50;;;19.18;62.90;99845.81;4952809;28;20594;-85
2023/07/23 01:32:25;;;;;;;5.50;3.08;;;18.30;87.70;;;19.17;63.03;99838.78;4953056;29;20134;-86
2023/07/23 01:34:53;;;;;;;7.45;3.80;;;18.30;87.90;;;19.14;63.40;99832.06;4953017;29;20039;-86
2023/07/23 01:37:20;;;;;;;9.57;3.80;;;18.30;88.10;;;19.15;63.40;99835.56;4954374;28;20067;-85
2023/07/23 01:39:51;;;;;;;6.38;3.42;;;18.30;88.10;;;19.14;63.34;99821.25;4952755;28;20051;-86
2023/07/23 01:42:19;;;;;;;5.72;3.45;;;18.30;88.30;;;19.14;63.50;99821.25;4953062;28;20416;-86
2023/07/23 01:44:46;;;;;;;7.53;3.75;;;18.30;88.40;;;19.14;64.13;99817.75;4952659;28;20047;-86
2023/07/23 01:47:13;;;;;;;8.18;3.83;;;18.30;88.60;;;19.13;64.00;99814.25;4968676;28;20051;-86
2023/07/23 01:49:40;;;;;;;7.25;3.88;;;18.30;88.70;;;19.13;63.66;99808.84;4968699;28;20765;-85
2023/07/23 01:52:08;;;;;;;7.35;3.75;;;18.30;88.70;;;19.11;63.79;99802.88;4952974;29;20499;-85
2023/07/23 01:54:35;;;;;;;6.68;3.83;;;18.20;88.60;;;19.11;63.71;99802.09;4952589;28;20086;-85
2023/07/23 01:57:05;;;;;;;8.98;4.15;;;18.20;88.70;;;19.11;63.81;99796.69;4968930;28;20492;-85
2023/07/23 01:59:32;;;;;;;7.00;4.10;;;18.20;88.70;;;19.10;63.92;99795.88;4952350;28;20047;-85
2023/07/23 02:02:00;;;;;;;8.18;4.07;;;18.30;88.70;;;19.07;64.03;99790.22;4968814;28;20141;-86
2023/07/23 02:04:27;;;;;;;7.38;3.72;;;18.20;89.00;;;19.06;63.86;99794.03;4953849;28;20047;-85
2023/07/23 02:06:54;;;;;;;7.30;3.90;;;18.30;89.10;;;19.08;64.43;99791.84;4952687;28;20059;-86
2023/07/23 02:09:22;;;;;;;6.57;4.20;;;18.20;89.20;;;19.04;64.12;99792.41;4952331;28;20090;-86
2023/07/23 02:11:49;;;;;;;7.45;4.65;;;18.20;89.10;;;19.03;64.44;99785.41;4970035;28;20083;-86
2023/07/23 02:14:17;;;;;;;7.60;4.43;;;18.20;89.30;;;19.04;63.97;99786.22;4988021;28;20664;-85
2023/07/23 02:16:45;;;;;;;7.57;4.50;;;18.30;88.80;;;19.03;63.84;99777.28;4972062;28;20495;-85
2023/07/23 02:19:13;;;;;;;7.53;4.78;;;18.20;88.30;;;19.03;63.45;99780.00;4972879;28;20042;-86
2023/07/23 02:21:41;;;;;;;7.70;4.80;;;18.30;88.10;;;18.97;62.88;99767.59;4988014;28;20073;-85
2023/07/23 02:24:08;;;;;;;8.38;5.68;;;18.20;87.50;;;18.99;62.41;99778.94;4987793;28;20501;-85
2023/07/23 02:26:35;;;;;;;7.90;5.28;;;18.20;86.50;;;18.99;61.81;99764.63;4972824;28;20496;-85
2023/07/23 02:29:03;;;;;;;9.13;5.22;;;18.20;86.00;;;18.97;61.97;99764.09;4971612;28;20082;-85
2023/07/23 02:31:33;;;;;;;9.23;5.43;;;18.20;86.20;;;18.97;61.87;99762.19;4971640;28;20043;-85
2023/07/23 02:34:00;;;;;;;8.48;5.50;;;18.20;86.00;;;18.95;60.32;99758.19;4971710;28;20133;-85
2023/07/23 02:36:27;;;;;;;11.05;5.97;;;18.20;84.20;;;18.96;60.54;99748.97;4987777;28;20133;-85
2023/07/23 02:38:55;;;;;;;9.90;4.97;;;18.30;84.40;;;18.92;58.82;99746.03;4987893;28;20582;-85
2023/07/23 02:41:23;;;;;;;7.53;4.85;;;18.30;82.30;;;18.93;59.22;99752.22;4971622;28;20051;-85
2023/07/23 02:43:50;;;;;;;9.60;5.22;;;18.30;82.80;;;18.96;58.99;99746.28;4987988;28;20050;-85
2023/07/23 02:46:17;;;;;;;10.73;5.20;;;18.30;82.40;;;18.98;59.39;99741.38;4971591;28;20051;-85
2023/07/23 02:48:46;;;;;;;8.70;4.47;;;18.40;82.90;;;18.97;58.04;99739.78;4987469;28;20085;-85
2023/07/23 02:51:13;;;;;;;8.93;5.28;;;18.40;81.20;;;18.97;58.22;99731.66;4987703;28;20057;-85
2023/07/23 02:53:41;;;;;;;8.00;5.07;;;18.30;81.20;;;18.97;58.43;99727.06;4972768;28;20075;-85
2023/07/23 02:56:08;;;;;;;9.07;5.43;;;18.40;81.60;;;19.02;58.16;99737.03;4987789;28;20521;-85
2023/07/23 02:58:35;;;;;;;12.15;4.80;;;18.40;81.30;;;19.02;58.33;99729.72;4971277;28;20043;-85
2023/07/23 03:01:03;;;;;;;10.05;5.88;;;18.40;81.30;;;19.04;59.36;99726.75;4972292;28;20039;-86
2023/07/23 03:03:30;;;;;;;10.95;5.22;;;18.40;82.60;;;19.04;59.48;99732.97;4971036;28;20117;-85
2023/07/23 03:05:58;;;;;;;10.60;5.50;;;18.40;82.70;;;19.02;57.36;99727.00;4972339;28;20535;-85
2023/07/23 03:08:26;;;;;;;7.10;5.15;;;18.30;81.40;;;19.00;59.39;99726.50;4975987;28;20168;-85
2023/07/23 03:10:53;;;;;;;8.65;5.10;;;18.30;82.70;;;19.01;59.53;99722.69;4974853;28;20133;-85
2023/07/23 03:13:20;;;;;;;9.52;5.50;;;18.30;83.00;;;19.01;59.74;99720.00;4991262;28;20054;-85
2023/07/23 03:15:48;;;;;;;9.68;5.32;;;18.30;83.10;;;19.02;59.66;99715.41;4974843;28;20043;-85
2023/07/23 03:18:15;;;;;;;13.23;5.63;;;18.30;83.00;;;19.01;59.83;99717.28;4974787;28;20054;-85
2023/07/23 03:20:42;;;;;;;8.27;5.40;;;18.30;83.60;;;19.01;60.10;99722.69;4975821;28;20038;-85
2023/07/23 03:23:11;;;;;;;8.23;5.20;;;18.30;83.50;;;18.96;58.91;99714.66;4991000;28;20157;-85
2023/07/23 03:25:38;;;;;;;7.63;5.18;;;18.30;82.60;;;18.96;59.36;99711.94;4976094;28;20082;-85
2023/07/23 03:28:05;;;;;;;13.27;5.70;;;18.30;83.10;;;18.95;59.63;99710.34;4975883;28;20576;-85
2023/07/23 03:30:33;;;;;;;9.25;4.90;;;18.30;82.70;;;18.92;58.30;99710.09;4990641;28;20043;-85
2023/07/23 03:33:01;;;;;;;8.20;4.95;;;18.20;81.60;;;18.95;58.79;99715.75;4974541;28;20082;-85
2023/07/23 03:35:28;;;;;;;7.78;5.32;;;18.30;81.90;;;18.95;58.63;99710.34;4975768;28;20041;-85
2023/07/23 03:37:56;;;;;;;9.23;5.35;;;18.30;81.80;;;18.95;58.65;99704.94;4975756;28;20127;-85
2023/07/23 03:40:24;;;;;;;7.53;4.85;;;18.30;81.70;;;18.93;57.80;99709.00;4975210;28;20034;-85
2023/07/23 03:42:52;;;;;;;10.65;5.55;;;18.30;81.20;;;18.93;57.48;99709.00;4974117;28;20046;-86
2023/07/23 03:45:19;;;;;;;9.73;5.32;;;18.30;80.90;;;18.94;57.36;99705.22;4975375;28;20508;-85
2023/07/23 03:47:46;;;;;;;7.55;4.97;;;18.30;80.30;;;18.90;56.68;99704.97;4990681;28;20042;-85
2023/07/23 03:50:14;;;;;;;9.40;5.00;;;18.30;79.30;;;18.91;56.83;99712.00;4974629;28;20137;-85
2023/07/23 03:52:41;;;;;;;7.82;5.32;;;18.30;79.20;;;18.91;56.31;99709.28;4990470;28;20078;-85
2023/07/23 03:55:09;;;;;;;7.07;4.95;;;18.30;78.80;;;18.88;55.79;99704.44;4990454;28;20632;-85
2023/07/23 03:57:38;;;;;;;8.60;4.85;;;18.30;78.40;;;18.86;55.31;99705.84;4975322;28;20050;-85
2023/07/23 04:00:08;;;;;;;10.55;5.20;;;18.30;77.80;;;18.87;55.15;99705.53;4974091;28;20106;-85
2023/07/23 04:02:38;;;;;;;13.15;5.40;;;18.30;77.70;;;18.89;55.68;99705.28;4974367;28;20086;-85
2023/07/23 04:05:06;;;;;;;7.85;4.55;;;18.30;78.40;;;18.91;55.72;99708.50;4973927;28;20423;-85
2023/07/23 04:07:34;;;;;;;11.10;5.75;;;18.30;78.10;;;18.90;56.37;99710.38;4974007;28;20401;-85
2023/07/23 04:10:03;;;;;;;7.70;4.93;;;18.40;78.10;;;18.92;55.50;99707.41;4974171;28;20046;-85
2023/07/23 04:12:33;;;;;;;9.07;5.00;;;18.40;77.40;;;18.84;54.36;99710.69;4974301;28;20586;-85
2023/07/23 04:15:03;;;;;;;7.13;4.72;;;18.40;76.40;;;18.83;54.65;99704.50;4974113;28;20047;-85
2023/07/23 04:17:30;;;;;;;8.32;4.85;;;18.30;76.20;;;18.87;55.78;99704.75;4972562;28;20051;-85
2023/07/23 04:19:57;;;;;;;10.00;5.25;;;18.40;77.80;;;18.90;55.91;99704.97;4974644;28;20042;-85
2023/07/23 04:22:25;;;;;;;8.70;5.25;;;18.40;78.10;;;18.90;55.72;99704.97;4973467;28;20074;-85
2023/07/23 04:24:52;;;;;;;8.88;5.07;;;18.40;77.60;;;18.93;55.99;99699.00;4973386;28;20043;-85
2023/07/23 04:27:19;;;;;;;9.23;5.22;;;18.40;78.10;;;18.89;53.39;99703.38;4973552;28;20194;-85
2023/07/23 04:29:47;;;;;;;12.10;5.10;;;18.40;75.20;;;18.90;55.03;99701.47;4973230;28;20051;-85
2023/07/23 04:32:15;;;;;;;6.57;4.43;;;18.40;76.50;;;18.93;55.88;99696.28;4973624;28;20137;-85
2023/07/23 04:34:43;;;;;;;8.18;5.00;;;18.50;77.30;;;18.94;54.93;99689.81;4955498;29;20127;-85
2023/07/23 04:37:11;;;;;;;17.45;5.07;;;18.50;76.90;;;18.89;55.46;99684.47;4954215;28;20082;-85
2023/07/23 04:39:38;;;;;;;10.35;5.07;;;18.40;77.20;;;18.87;54.98;99700.13;4954960;28;20133;-85
2023/07/23 04:42:06;;;;;;;10.75;5.00;;;18.40;76.40;;;18.92;55.18;99696.59;4954052;29;20055;-85
2023/07/23 04:44:33;;;;;;;10.60;4.63;;;18.50;77.20;;;18.93;54.77;99692.78;4954081;29;20049;-85
2023/07/23 04:47:00;;;;;;;9.35;4.97;;;18.50;76.60;;;18.93;54.61;99695.50;4955078;28;20118;-85
2023/07/23 04:49:29;;;;;;;11.75;4.80;;;18.50;76.40;;;18.93;54.62;99687.38;4955039;28;20133;-85
2023/07/23 04:51:56;;;;;;;8.63;4.95;;;18.50;76.30;;;18.97;54.33;99694.63;4970194;28;20047;-85
2023/07/23 04:54:23;;;;;;;11.60;5.30;;;18.50;75.70;;;18.98;54.28;99685.47;4955220;29;20126;-85
2023/07/23 04:56:51;;;;;;;7.95;5.15;;;18.50;75.50;;;19.01;54.84;99687.56;4954889;29;20085;-85
2023/07/23 04:59:18;;;;;;;9.25;4.60;;;18.50;76.70;;;19.03;53.47;99687.28;4953295;28;20043;-85
2023/07/23 05:01:45;;;;;;;12.38;4.45;;;18.60;74.90;;;18.95;53.59;99690.63;4953558;28;20083;-85
2023/07/23 05:04:12;;;;;;;10.52;4.22;;;18.60;74.50;;;18.92;53.77;99697.38;4953794;28;20051;-85
2023/07/23 05:06:41;;;;;;;7.85;4.40;;;18.60;74.70;;;18.93;53.59;99692.78;4953605;28;20079;-85
2023/07/23 05:09:08;;;;;;;9.00;4.82;;;18.60;74.40;;;18.94;53.43;99695.22;4953419;28;20058;-85
2023/07/23 05:11:35;;;;;;;6.85;4.50;;;18.60;74.30;;;18.96;54.43;99692.22;4953491;28;20083;-85
2023/07/23 05:14:03;;;;;;;8.13;4.90;;;18.60;75.40;;;18.95;54.81;99691.44;4953589;29;20146;-85
2023/07/23 05:16:30;;;;;;;7.93;4.75;;;18.60;75.80;;;19.01;55.19;99695.69;4954776;29;20078;-85
2023/07/23 05:18:57;;;;;;;6.95;4.70;;;18.60;76.30;;;18.97;53.94;99694.63;4969222;28;20613;-85
2023/07/23 05:21:25;;;;;;;8.30;4.40;;;18.60;74.90;;;18.98;54.39;99704.38;4954485;28;20043;-85
2023/07/23 05:23:53;;;;;;;9.90;4.55;;;18.60;75.50;;;19.00;53.62;99699.47;4954309;29;20535;-85
2023/07/23 05:26:20;;;;;;;7.40;4.20;;;18.70;74.50;;;18.95;53.73;99693.31;4954629;28;20551;-85
2023/07/23 05:28:47;;;;;;;8.63;4.68;;;18.70;74.10;;;18.96;54.18;99695.72;4952809;28;20138;-85
2023/07/23 05:31:17;;;;;;;9.77;4.28;;;18.70;74.60;;;18.99;53.56;99691.66;4954284;29;20445;-85
2023/07/23 05:33:44;;;;;;;7.47;3.83;;;18.80;74.20;;;19.03;54.06;99696.22;4953045;28;20141;-85
2023/07/23 05:36:11;;;;;;;5.88;3.70;;;18.80;74.60;;;19.08;53.33;99689.13;4954089;29;20046;-85
2023/07/23 05:38:39;;;;;;;9.55;3.83;;;18.80;73.40;;;19.10;53.53;99692.34;4968890;28;20508;-85
2023/07/23 05:41:07;;;;;;;10.77;4.15;;;18.90;74.00;;;19.09;52.84;99704.28;4972370;28;20043;-85
2023/07/23 05:43:35;;;;;;;8.75;3.85;;;18.90;72.90;;;19.14;52.79;99688.81;4972175;28;20500;-85
2023/07/23 05:46:03;;;;;;;8.82;4.03;;;18.90;73.20;;;19.11;52.73;99692.06;4988391;28;20415;-85
2023/07/23 05:48:30;;;;;;;7.80;3.58;;;19.00;73.00;;;19.11;51.90;99686.66;4973458;28;20054;-85
2023/07/23 05:50:57;;;;;;;7.95;3.70;;;19.00;71.70;;;19.18;52.95;99702.53;4973607;28;20042;-85
2023/07/23 05:53:25;;;;;;;9.02;3.53;;;19.00;72.80;;;19.22;53.15;99696.25;4972406;28;20151;-85
2023/07/23 05:55:52;;;;;;;7.85;3.83;;;19.00;73.10;;;19.28;52.99;99699.75;4973415;28;20105;-85
2023/07/23 05:58:21;;;;;;;6.53;3.50;;;19.10;73.10;;;19.34;53.36;99690.47;4973207;28;20399;-85
2023/07/23 06:00:49;;;;;;;8.18;3.42;;;19.20;73.40;;;19.37;52.32;99694.47;4973026;28;20070;-85
2023/07/23 06:03:16;;;;;;;7.63;3.28;;;19.20;72.30;;;19.50;53.42;99697.28;4973160;28;20066;-85
2023/07/23 06:05:43;;;;;;;6.68;2.97;;;19.40;73.00;;;19.58;52.40;99695.06;4988065;28;20049;-85
2023/07/23 06:08:11;;;;;;;6.30;3.17;;;19.50;71.70;;;19.59;52.55;99696.66;4972908;28;20125;-85
2023/07/23 06:10:38;;;;;;;5.68;3.20;;;19.60;71.60;;;19.62;52.13;99699.63;4972691;28;20078;-85
2023/07/23 06:13:05;;;;;;;7.60;3.45;;;19.60;71.20;;;19.64;53.35;99691.22;4987695;28;20078;-85
2023/07/23 06:15:34;;;;;;;6.82;3.40;;;19.60;72.80;;;19.63;52.70;99686.91;4972785;28;20518;-85
2023/07/23 06:18:01;;;;;;;6.20;3.00;;;19.60;71.90;;;19.67;52.97;99690.66;4973014;28;20105;-85
2023/07/23 06:20:29;;;;;;;5.65;3.10;;;19.60;72.20;;;19.69;52.52;99688.44;4972779;28;20046;-85
2023/07/23 06:22:58;;;;;;;7.43;2.60;;;19.70;71.90;;;19.68;52.26;99687.63;4971813;28;20137;-85
2023/07/23 06:25:25;;;;;;;10.80;3.13;;;19.60;71.50;;;19.73;52.97;99687.56;4972886;28;20510;-85
2023/07/23 06:27:52;;;;;;;6.75;3.20;;;19.70;72.10;;;19.77;52.09;99691.31;4971763;28;20113;-85
2023/07/23 06:30:20;;;;;;;6.80;3.35;;;19.70;71.10;;;19.76;52.80;99695.13;4971519;28;20042;-85
2023/07/23 06:32:48;;;;;;;7.30;2.95;;;19.70;71.80;;;19.77;53.18;99690.50;4973282;28;20071;-85
2023/07/23 06:35:16;;;;;;;8.63;2.88;;;19.70;72.30;;;19.66;51.87;99694.41;4973043;28;20135;-86
2023/07/23 06:37:43;;;;;;;8.90;3.20;;;19.70;70.90;;;19.71;53.52;99697.88;4971550;28;20161;-85
2023/07/23 06:40:11;;;;;;;6.43;3.25;;;19.70;73.10;;;19.75;53.11;99701.59;4971428;28;20047;-85
2023/07/23 06:42:38;;;;;;;6.72;2.85;;;19.70;72.40;;;19.74;52.77;99693.78;4984327;28;20504;-85
2023/07/23 06:45:07;;;;;;;6.38;3.28;;;19.70;72.10;;;19.71;51.78;99688.94;4956260;29;20130;-85
2023/07/23 06:47:34;;;;;;;8.38;2.92;;;19.60;70.70;;;19.67;52.71;99690.66;4957154;28;20162;-85
2023/07/23 06:50:03;;;;;;;7.28;2.72;;;19.60;71.30;;;19.70;52.50;99692.75;4955553;28;20055;-85
2023/07/23 06:52:31;;;;;;;7.38;3.15;;;19.60;71.50;;;19.69;52.72;99691.94;4972096;28;20515;-85
2023/07/23 06:54:58;;;;;;;5.05;2.70;;;19.60;71.60;;;19.69;52.17;99681.13;4957183;29;20057;-85
2023/07/23 06:57:26;;;;;;;9.30;3.25;;;19.60;71.10;;;19.67;52.91;99685.22;4957187;28;20078;-85
2023/07/23 06:59:53;;;;;;;7.20;3.10;;;19.60;71.80;;;19.65;52.67;99684.69;4957439;28;20054;-85
2023/07/23 07:02:20;;;;;;;7.78;2.97;;;19.60;71.60;;;19.63;52.89;99687.72;4966642;28;20070;-85
2023/07/23 07:04:47;;;;;;;7.47;3.30;;;19.60;72.10;;;19.70;53.21;99690.03;4982582;28;20027;-85
2023/07/23 07:07:16;;;;;;;7.30;3.30;;;19.60;72.60;;;19.73;53.21;99681.34;4997726;28;20115;-85
2023/07/23 07:09:43;;;;;;;6.97;2.80;;;19.60;72.70;;;19.72;53.01;99682.47;4980850;28;20042;-85
2023/07/23 07:12:10;;;;;;;5.22;3.08;;;19.60;72.30;;;19.79;53.49;99685.59;4989814;28;20047;-85
2023/07/23 07:14:37;;;;;;;7.30;2.95;;;19.70;72.90;;;19.78;53.27;99684.78;4960790;28;20047;-85
2023/07/23 07:17:05;;;;;;;4.90;2.90;;;19.70;72.80;;;19.79;53.35;99685.59;4973146;28;20508;-85
2023/07/23 07:19:32;;;;;;;5.40;3.05;;;19.70;73.10;;;19.82;52.89;99684.22;4972578;28;20157;-85
2023/07/23 07:22:00;;;;;;;5.65;2.80;;;19.70;72.20;;;19.77;53.14;99683.19;4956870;29;20066;-85
2023/07/23 07:24:28;;;;;;;6.88;3.33;;;19.70;72.50;;;19.79;53.89;99691.00;4955879;29;20130;-85
2023/07/23 07:26:56;;;;;;;4.80;3.03;;;19.70;73.10;;;19.80;53.34;99696.13;4956923;28;20039;-85
2023/07/23 07:29:23;;;;;;;8.43;3.50;;;19.80;72.30;;;19.80;52.98;99695.31;4956677;28;20467;-85
2023/07/23 07:31:52;;;;;;;7.25;3.20;;;19.80;71.90;;;19.77;52.46;99695.91;4956502;28;20082;-85
2023/07/23 07:34:19;;;;;;;5.38;3.22;;;19.80;71.80;;;19.69;52.74;99693.84;4955212;29;20142;-85
2023/07/23 07:36:46;;;;;;;8.32;3.33;;;19.70;72.10;;;19.59;53.43;99699.38;4956610;28;20132;-85
2023/07/23 07:39:13;;;;;;;6.75;3.35;;;19.60;72.50;;;19.43;54.53;99701.47;4963080;28;20146;-85
2023/07/23 07:41:42;;;;;;;6.85;3.40;;;19.40;73.70;;;19.38;54.73;99699.63;4990492;28;20051;-85
2023/07/23 07:44:09;;;;;;;8.65;3.72;;;19.30;74.20;;;19.31;56.25;99707.25;4975709;28;20047;-85
2023/07/23 07:46:36;;;;;;;5.43;3.35;;;19.20;75.80;;;19.36;57.00;99714.50;4975712;28;20125;-85
2023/07/23 07:49:04;;;;;;;5.28;3.20;;;19.20;77.20;;;19.37;56.68;99706.09;4975694;28;20711;-85
2023/07/23 07:51:32;;;;;;;9.07;3.97;;;19.20;77.20;;;19.40;56.88;99704.72;4975288;28;20767;-85
2023/07/23 07:53:59;;;;;;;5.28;3.30;;;19.20;77.60;;;19.35;57.51;99705.59;4975248;28;20035;-85
2023/07/23 07:56:27;;;;;;;7.82;3.67;;;19.10;78.00;;;19.37;56.60;99708.00;4974215;28;20141;-85
2023/07/23 07:58:57;;;;;;;7.85;3.42;;;19.10;77.40;;;19.43;58.07;99715.78;4975073;28;20507;-85
2023/07/23 08:01:25;;;;;;;6.93;3.70;;;19.20;79.00;;;19.51;58.05;99720.53;4973834;28;20129;-85
2023/07/23 08:03:53;;;;;;;7.13;3.58;;;19.20;79.00;;;19.44;57.11;99714.69;4975296;28;20051;-85
2023/07/23 08:06:24;;;;;;;5.82;3.35;;;19.20;77.80;;;19.47;58.30;99711.41;4973764;28;20093;-85
2023/07/23 08:08:52;;;;;;;9.57;3.80;;;19.30;78.80;;;19.48;56.76;99710.31;4974836;28;20049;-85
2023/07/23 08:11:21;;;;;;;8.60;3.50;;;19.30;77.50;;;19.45;57.35;99710.06;4989715;28;20574;-85
2023/07/23 08:13:49;;;;;;;9.00;3.70;;;19.30;77.30;;;19.49;57.42;99724.63;4973908;28;20053;-85
2023/07/23 08:16:19;;;;;;;7.13;3.50;;;19.30;77.80;;;19.47;57.23;99716.00;4990081;28;20077;-85
2023/07/23 08:18:47;;;;;;;7.83;3.37;;;19.30;77.20;;;19.47;57.33;99706.00;4975029;28;20047;-85
2023/07/23 08:21:15;;;;;;;8.45;3.78;;;19.30;77.50;;;19.51;57.25;99725.94;4974711;28;20073;-85
2023/07/23 08:23:43;;;;;;;8.90;3.58;;;19.40;77.70;;;19.45;56.09;99729.00;4973810;28;20138;-85
2023/07/23 08:26:16;;;;;;;7.80;3.38;;;19.30;76.60;;;19.29;58.13;99744.59;4974751;28;20134;-85
2023/07/23 08:28:51;;;;;;;5.93;3.53;;;19.20;78.10;;;19.36;59.25;99736.94;4989613;28;20065;-85
2023/07/23 08:31:20;;;;;;;6.90;3.30;;;19.20;80.00;;;19.30;58.84;99738.91;4989694;28;20047;-85
2023/07/23 08:33:49;;;;;;;8.38;3.60;;;19.20;79.20;;;19.29;60.04;99731.09;4989589;28;20407;-85
2023/07/23 08:36:17;;;;;;;6.85;3.63;;;19.20;80.70;;;19.39;60.14;99743.69;4974824;28;20459;-85
2023/07/23 08:38:46;;;;;;;7.10;3.30;;;19.20;81.20;;;19.34;60.15;99747.25;4974438;28;20047;-85
2023/07/23 08:41:30;;;;;;;7.97;3.42;;;19.20;81.00;;;19.24;60.98;99741.94;4973191;28;20153;-85
2023/07/23 08:44:33;;;;;;;6.80;3.60;;;19.10;81.80;;;19.20;61.89;99749.03;4974554;28;20118;-85
2023/07/23 08:47:12;;;;;;;7.90;3.30;;;19.00;83.10;;;19.17;62.99;99753.09;4973939;28;20129;-85
2023/07/23 08:49:42;;;;;;;8.40;3.40;;;19.00;84.50;;;19.21;62.83;99753.31;4973978;28;20053;-85
2023/07/23 08:52:11;;;;;;;10.35;3.20;;;18.90;84.50;;;19.20;63.50;99752.53;4989316;28;20046;-85
2023/07/23 08:54:40;;;;;;;9.25;3.20;;;18.90;85.20;;;19.13;63.40;99756.66;4974183;28;20043;-85
2023/07/23 08:57:08;;;;;;;6.00;2.95;;;18.90;85.50;;;19.03;63.63;99757.53;4974273;28;20113;-85
2023/07/23 08:59:37;;;;;;;9.02;3.22;;;18.80;85.90;;;19.11;64.09;99761.53;4988863;28;20881;-85
2023/07/23 09:02:08;;;;;;;9.15;3.08;;;18.70;86.60;;;19.14;64.44;99763.69;4973479;28;20050;-85
2023/07/23 09:04:35;;;;;;;5.43;3.08;;;18.80;86.90;;;19.15;64.57;99774.19;4988589;28;20411;-85
2023/07/23 09:07:04;;;;;;;9.05;3.40;;;18.80;87.30;;;19.17;64.95;99772.00;4974151;28;20046;-85
2023/07/23 09:09:31;;;;;;;9.23;3.33;;;18.80;87.90;;;19.19;65.82;99772.53;4974042;28;20385;-85
2023/07/23 09:11:59;;;;;;;9.93;3.63;;;18.80;88.50;;;19.13;66.47;99789.09;4974061;28;20117;-85
2023/07/23 09:14:27;;;;;;;8.15;3.55;;;18.80;89.10;;;19.17;66.88;99779.31;4957040;28;20047;-85
2023/07/23 09:16:54;;;;;;;5.97;3.42;;;18.80;90.00;;;19.17;66.55;99773.91;4989059;28;20046;-85
2023/07/23 09:19:27;;;;;;;7.38;3.50;;;18.80;89.50;;;19.09;66.73;99771.84;4974025;28;20042;-85
2023/07/23 09:21:58;;;;;;;10.20;3.97;;;18.70;90.00;;;19.09;66.95;99769.13;4973930;28;20057;-85
2023/07/23 09:24:33;;;;;;;5.72;3.28;;;18.70;90.20;;;19.09;66.57;99763.72;4988843;28;20075;-85
2023/07/23 09:27:01;;;;;;;6.07;3.42;;;18.70;90.30;;;19.06;66.84;99777.81;4973530;28;20412;-85
2023/07/23 09:29:35;;;;;;;7.30;3.47;;;18.70;90.40;;;18.92;67.36;99772.25;4973420;28;20057;-85
2023/07/23 09:34:51;;;;;;;6.68;3.83;;;18.50;91.00;;;19.04;67.44;99770.78;5021962;23;20054;-85
2023/07/23 09:37:18;;;;;;;6.85;3.70;;;18.60;91.60;;;19.10;67.51;99776.16;4972682;28;20118;-85
2023/07/23 09:39:46;;;;;;;6.78;4.00;;;18.60;91.40;;;19.03;67.77;99769.19;4972291;28;20519;-85
2023/07/23 09:42:13;;;;;;;9.23;4.18;;;18.60;91.40;;;19.05;67.46;99774.31;4972674;28;20129;-85
2023/07/23 09:44:41;;;;;;;8.07;4.25;;;18.60;91.20;;;19.05;67.19;99774.31;4973897;28;20496;-85
2023/07/23 09:47:09;;;;;;;6.20;3.80;;;18.50;91.40;;;18.99;67.78;99773.53;4972417;28;20046;-85
2023/07/23 09:49:38;;;;;;;6.50;4.05;;;18.50;91.80;;;18.97;67.99;99769.50;4972201;28;20042;-85
2023/07/23 09:52:10;;;;;;;7.30;3.88;;;18.50;92.00;;;18.98;67.83;99774.63;4973524;28;20049;-85
2023/07/23 09:54:37;;;;;;;6.07;4.15;;;18.50;92.10;;;19.02;67.94;99782.97;4972457;28;20051;-85
2023/07/23 09:57:07;;;;;;;7.88;4.18;;;18.50;92.20;;;19.03;68.06;99773.75;4973729;28;20125;-85
2023/07/23 09:59:36;;;;;;;6.97;3.92;;;18.50;92.60;;;19.07;67.90;99771.31;4972434;28;20423;-85
2023/07/23 10:02:06;;;;;;;7.35;3.95;;;18.50;92.60;;;19.05;68.76;99777.00;4973743;28;20047;-85
2023/07/23 10:04:36;;;;;;;6.88;4.35;;;18.50;93.20;;;18.99;67.82;99768.13;4971689;28;20154;-84
2023/07/23 10:07:04;;;;;;;6.65;4.13;;;18.50;92.40;;;18.98;68.56;99780.03;4974715;28;20082;-83
2023/07/23 10:09:34;;;;;;;7.15;4.22;;;18.50;93.20;;;18.95;68.92;99777.91;4970856;28;20058;-83
2023/07/23 10:12:00;;;;;;;6.85;4.20;;;18.50;93.30;;;18.92;68.63;99773.06;4973014;28;20068;-84
2023/07/23 10:14:28;;;;;;;6.10;4.20;;;18.50;93.20;;;18.74;69.33;99773.75;4971708;28;20062;-85
2023/07/23 10:16:56;;;;;;;7.40;4.45;;;18.30;93.20;;;18.71;69.33;99777.03;4972268;28;20041;-86
2023/07/23 10:19:24;;;;;;;6.68;4.10;;;18.30;93.40;;;18.65;69.48;99776.22;4971252;28;20039;-85
2023/07/23 10:21:51;;;;;;;8.80;4.78;;;18.30;94.10;;;18.66;70.14;99785.13;4987884;28;20043;-89
2023/07/23 10:24:19;;;;;;;7.95;4.47;;;18.30;94.30;;;18.59;70.91;99779.22;4974183;28;20043;-84